Chanute Martin Johnson Airport Chanute US
ICAO: KCNU
IATA: CNU
Category: Medium
Scheduled Services: No

Elevation: 1002 ft
TransAlt. 18000 ft.

Airport Communications:
ASOS:127.075
KANSAS CITY CNTR:132.9
WICHITA RDO:122.35
CTAF/UNICOM:122.7

KCNU Zoom In..

If you have problems with the map follow the link
https://www.worldairports.se/pages/airport.php?
ICAO=KCNU

Runways:

(A) RW 18 length 4255 ft width 75 ft
---- / hdg 182

(B) RW 36 length 4255 ft width 75 ft
---- / hdg 2

Location; KCNU
Day. 12 / Time. 07.52 Zulu
* Altimeter: 30.24
* Temperature: 06° c. 42.8°f.
* Wind from: 180° Speed 14 kn.
Dewpoint: -02° c.
Visibility: 10 Statute Miles.
Clouds: Clear (automated report).

KCNU 120752Z AUTO 18014KT 10SM CLR 06/M02 A3024 RMK AO2 SLP240 T00611022


Wind From 180°
Speed 14 kn.

 
 
jpsmedia worldairports.se 2019   terms of use